Huntsville's Hourly Summary for Thursday, July 5, 2018
Hour Temp
(f)
RH
(%)
Solar Rad.
(MJ/m2)
Rainfall
(in)
Wind
(mph)
7/5/2018 12:00 AM 69 90 0 0 0.01
7/5/2018 1:00 AM 69 90 0 0 0.03
7/5/2018 2:00 AM 69 89 0 0 0.01
7/5/2018 3:00 AM 69 89 0 0 0
7/5/2018 4:00 AM 68 89 0 0 0
7/5/2018 5:00 AM 67 91 0 0 0
7/5/2018 6:00 AM 67 91 0.02 0 0
7/5/2018 7:00 AM 69 84 0.24 0 0
7/5/2018 8:00 AM 74 77 1.15 0 0.98
7/5/2018 9:00 AM 78 72 1.68 0 0.4
7/5/2018 10:00 AM 81 63 2.36 0 1.67
7/5/2018 11:00 AM 83 55 2.67 0 2.21
7/5/2018 12:00 PM 85 52 2.81 0 1.81
7/5/2018 1:00 PM 87 48 2.8 0 1.81
7/5/2018 2:00 PM 87 45 2.14 0 1.68
7/5/2018 3:00 PM 89 40 2.65 0 1.63
7/5/2018 4:00 PM 90 40 2.07 0 1.43
7/5/2018 5:00 PM 91 40 1.81 0 2.29
7/5/2018 6:00 PM 87 40 0.58 0.05 3.08
7/5/2018 7:00 PM 73 87 0.06 0.2 0.9
7/5/2018 8:00 PM 73 87 0 0 1.74
7/5/2018 9:00 PM 71 88 0 0 0.01
7/5/2018 10:00 PM 71 90 0 0 0.07
7/5/2018 11:00 PM 71 89 0 0 0.09
Data Summary 76 71 23.04 0.25 0.91